Time,TemperatureF,DewpointF,PressureIn,WindDirection,WindDirectionDegrees,WindSpeedMPH,WindSpeedGustMPH,Humidity,HourlyPrecipIn,Conditions,Clouds,dailyrainin,SoftwareType,DateUTC
2013-03-24 00:00:00,27.2,23.6,30.08,WNW,295,4.0,5.0,86,0.00,,---,0.00,VWS V14.01,2013-03-24 04:00:00,
2013-03-24 01:00:00,27.0,23.4,30.07,WNW,297,3.0,5.0,86,0.00,,---,0.00,VWS V14.01,2013-03-24 05:00:00,
2013-03-24 02:00:00,26.9,23.6,30.06,West,279,4.0,6.0,87,0.00,,---,0.00,VWS V14.01,2013-03-24 06:00:00,
2013-03-24 02:30:00,26.8,24.0,30.05,NW,306,3.0,4.0,89,0.00,,---,0.00,VWS V14.01,2013-03-24 06:30:00,
2013-03-24 03:00:00,27.5,23.6,30.06,NW,315,0.0,5.0,85,0.00,,---,0.00,VWS V14.01,2013-03-24 07:00:00,
2013-03-24 03:30:00,27.2,23.3,30.05,NW,315,2.0,4.0,85,0.00,,---,0.00,VWS V14.01,2013-03-24 07:30:00,
2013-03-24 04:00:00,26.9,23.0,30.05,NW,315,2.0,4.0,85,0.00,,---,0.00,VWS V14.01,2013-03-24 08:00:00,
2013-03-24 04:30:00,26.3,22.4,30.04,NW,315,0.0,2.0,85,0.00,,---,0.00,VWS V14.01,2013-03-24 08:30:00,
2013-03-24 05:00:00,26.2,22.0,30.05,North,350,2.0,4.0,84,0.00,,---,0.00,VWS V14.01,2013-03-24 09:00:00,
2013-03-24 05:30:00,26.0,21.8,30.05,North,350,2.0,4.0,84,0.00,,---,0.00,VWS V14.01,2013-03-24 09:30:00,
2013-03-24 06:00:00,26.1,21.4,30.07,NE,39,5.0,9.0,82,0.00,,---,0.00,VWS V14.01,2013-03-24 10:00:00,
2013-03-24 06:30:00,25.6,20.6,30.07,ENE,57,5.0,8.0,81,0.00,,---,0.00,VWS V14.01,2013-03-24 10:30:00,
2013-03-24 07:00:00,24.2,19.8,30.07,North,354,1.0,5.0,83,0.00,,---,0.00,VWS V14.01,2013-03-24 11:00:00,
2013-03-24 07:30:00,23.6,19.5,30.07,ENE,57,1.0,5.0,84,0.00,,---,0.00,VWS V14.01,2013-03-24 11:30:00,
2013-03-24 08:00:00,23.1,19.0,30.07,NE,56,2.0,5.0,84,0.00,,---,0.00,VWS V14.01,2013-03-24 12:00:00,
2013-03-24 08:30:00,22.5,18.7,30.07,NE,56,3.0,3.0,85,0.00,,---,0.00,VWS V14.01,2013-03-24 12:30:00,
2013-03-24 09:00:00,23.6,19.2,30.07,NE,53,1.0,7.0,83,0.00,,---,0.00,VWS V14.01,2013-03-24 13:00:00,
2013-03-24 09:30:00,24.9,19.9,30.06,NE,42,6.0,8.0,81,0.00,,---,0.00,VWS V14.01,2013-03-24 13:30:00,
2013-03-24 10:00:00,26.5,20.3,30.05,ENE,63,1.0,8.0,77,0.00,,---,0.00,VWS V14.01,2013-03-24 14:00:00,
2013-03-24 10:30:00,26.3,19.5,30.04,North,10,3.0,8.0,75,0.00,,---,0.00,VWS V14.01,2013-03-24 14:30:00,
2013-03-24 11:00:00,26.4,19.6,30.03,North,360,4.0,6.0,75,0.00,,---,0.00,VWS V14.01,2013-03-24 15:00:00,
2013-03-24 11:30:00,26.8,20.6,30.02,NW,306,5.0,6.0,77,0.00,,---,0.00,VWS V14.01,2013-03-24 15:30:00,
2013-03-24 12:00:00,28.0,20.8,30.01,WNW,293,3.0,6.0,74,0.00,,---,0.00,VWS V14.01,2013-03-24 16:00:00,
2013-03-24 12:30:00,29.7,21.1,30.00,WNW,293,4.0,5.0,70,0.00,,---,0.00,VWS V14.01,2013-03-24 16:30:00,
2013-03-24 13:00:00,31.0,20.3,29.98,West,279,6.0,7.0,64,0.00,,---,0.00,VWS V14.01,2013-03-24 17:00:00,
2013-03-24 13:30:00,32.3,21.1,29.97,North,355,3.0,8.0,63,0.00,,---,0.00,VWS V14.01,2013-03-24 17:30:00,
2013-03-24 14:00:00,34.9,20.4,29.96,NE,46,3.0,10.0,55,0.00,,---,0.00,VWS V14.01,2013-03-24 18:00:00,
2013-03-24 14:30:00,36.0,20.5,29.94,NNE,21,0.0,12.0,53,0.00,,---,0.00,VWS V14.01,2013-03-24 18:30:00,
2013-03-24 15:00:00,35.7,21.6,29.93,East,81,8.0,13.0,56,0.00,,---,0.00,VWS V14.01,2013-03-24 19:00:00,
2013-03-24 15:30:00,35.6,21.9,29.92,ESE,111,2.0,13.0,57,0.00,,---,0.00,VWS V14.01,2013-03-24 19:30:00,
2013-03-24 16:00:00,35.9,20.5,29.91,ENE,73,8.0,12.0,53,0.00,,---,0.00,VWS V14.01,2013-03-24 20:00:00,
2013-03-24 16:30:00,36.2,19.8,29.90,ENE,73,10.0,13.0,51,0.00,,---,0.00,VWS V14.01,2013-03-24 20:30:00,
2013-03-24 17:00:00,36.2,19.8,29.88,East,86,4.0,12.0,51,0.00,,---,0.00,VWS V14.01,2013-03-24 21:00:00,
2013-03-24 17:30:00,36.5,19.2,29.87,ENE,73,9.0,13.0,49,0.00,,---,0.00,VWS V14.01,2013-03-24 21:30:00,
2013-03-24 18:00:00,36.6,19.3,29.86,NE,44,5.0,11.0,49,0.00,,---,0.00,VWS V14.01,2013-03-24 22:00:00,
2013-03-24 18:30:00,36.0,20.1,29.85,ENE,64,2.0,9.0,52,0.00,,---,0.00,VWS V14.01,2013-03-24 22:30:00,
2013-03-24 19:00:00,33.1,21.1,29.86,NNE,30,3.0,7.0,61,0.00,,---,0.00,VWS V14.01,2013-03-24 23:00:00,
2013-03-24 19:30:00,31.3,21.3,29.86,NNE,30,2.0,4.0,66,0.00,,---,0.00,VWS V14.01,2013-03-24 23:30:00,
2013-03-24 20:00:00,30.9,20.9,29.86,NNE,30,2.0,4.0,66,0.00,,---,0.00,VWS V14.01,2013-03-25 00:00:00,
2013-03-24 20:30:00,30.7,20.3,29.85,NE,42,5.0,7.0,65,0.00,,---,0.00,VWS V14.01,2013-03-25 00:30:00,
2013-03-24 21:00:00,31.5,20.7,29.86,ENE,70,3.0,9.0,64,0.00,,---,0.00,VWS V14.01,2013-03-25 01:00:00,
2013-03-24 21:30:00,32.8,22.0,29.86,NE,46,7.0,14.0,64,0.00,,---,0.00,VWS V14.01,2013-03-25 01:30:00,
2013-03-24 22:00:00,32.7,22.2,29.86,ENE,66,5.0,17.0,65,0.00,,---,0.00,VWS V14.01,2013-03-25 02:00:00,
2013-03-24 22:30:00,31.9,22.5,29.87,ENE,67,10.0,16.0,68,0.00,,---,0.00,VWS V14.01,2013-03-25 02:30:00,
2013-03-24 23:00:00,31.7,23.0,29.87,ENE,63,10.0,17.0,70,0.00,,---,0.00,VWS V14.01,2013-03-25 03:00:00,
2013-03-24 23:30:00,31.5,23.2,29.87,ESE,112,12.0,23.0,71,0.00,,---,0.00,VWS V14.01,2013-03-25 03:30:00,